createdAt,value
2018-03-26T00:00:47.618Z,5.8
2018-03-26T00:01:54.553Z,5.9
2018-03-26T00:03:01.486Z,5.9
2018-03-26T00:04:08.410Z,5.9
2018-03-26T00:05:15.631Z,5.9
2018-03-26T00:06:22.560Z,5.9
2018-03-26T00:07:29.499Z,5.9
2018-03-26T00:08:36.430Z,5.9
2018-03-26T00:09:43.634Z,5.9
2018-03-26T00:10:50.565Z,5.9
2018-03-26T00:11:57.774Z,5.9
2018-03-26T00:13:05.660Z,5.9
2018-03-26T00:14:12.879Z,5.9
2018-03-26T00:15:20.089Z,6
2018-03-26T00:16:27.017Z,6.1
2018-03-26T00:17:33.945Z,6.2
2018-03-26T00:18:40.881Z,6.3
2018-03-26T00:19:47.541Z,6.3
2018-03-26T00:20:54.745Z,6.2
2018-03-26T00:22:01.959Z,6.3
2018-03-26T00:23:08.630Z,6.2
2018-03-26T00:24:15.556Z,6.2
2018-03-26T00:25:22.765Z,6.2
2018-03-26T00:26:29.969Z,6.2
2018-03-26T00:27:36.905Z,6.2
2018-03-26T00:28:44.109Z,6.2
2018-03-26T00:29:51.313Z,6.1
2018-03-26T00:30:58.276Z,6.1
2018-03-26T00:32:05.483Z,6.1
2018-03-26T00:33:12.413Z,6.2
2018-03-26T00:34:19.628Z,6.2
2018-03-26T00:35:26.544Z,6.3
2018-03-26T00:36:33.474Z,6.5
2018-03-26T00:37:40.121Z,6.4
2018-03-26T00:38:47.325Z,6.4
2018-03-26T00:39:53.707Z,6.4
2018-03-26T00:41:00.077Z,6.4
2018-03-26T00:42:07.004Z,6.4
2018-03-26T00:43:14.210Z,6.4
2018-03-26T00:44:21.412Z,6.4
2018-03-26T00:45:28.340Z,6.4
2018-03-26T00:46:35.549Z,6.4
2018-03-26T00:47:42.773Z,6.4
2018-03-26T00:48:49.973Z,6.4
2018-03-26T00:49:56.904Z,6.4
2018-03-26T00:51:04.129Z,6.4
2018-03-26T00:52:11.329Z,6.3
2018-03-26T00:53:18.530Z,6.3
2018-03-26T00:54:25.455Z,6.3
2018-03-26T00:55:32.891Z,6.3
2018-03-26T00:56:39.825Z,6.3
2018-03-26T00:57:47.037Z,6.2
2018-03-26T00:58:54.234Z,6.2
2018-03-26T01:00:01.438Z,6.2
2018-03-26T01:01:08.643Z,6.2
2018-03-26T01:02:15.847Z,6.3
2018-03-26T01:03:23.053Z,6.3
2018-03-26T01:04:29.980Z,6.3
2018-03-26T01:05:37.181Z,6.2
2018-03-26T01:06:44.386Z,6.2
2018-03-26T01:07:51.596Z,6.3
2018-03-26T01:09:13.472Z,6.3
2018-03-26T01:10:20.669Z,6.3
2018-03-26T01:11:27.875Z,6.2
2018-03-26T01:12:34.810Z,6.2
2018-03-26T01:13:42.013Z,6.2
2018-03-26T01:14:49.218Z,6.2
2018-03-26T01:15:56.432Z,6.2
2018-03-26T01:17:03.643Z,6.2
2018-03-26T01:18:10.867Z,6.1
2018-03-26T01:19:17.795Z,6.1
2018-03-26T01:20:25.000Z,6.1
2018-03-26T01:21:31.924Z,6.1
2018-03-26T01:22:39.122Z,6.2
2018-03-26T01:23:46.324Z,6.2
2018-03-26T01:24:52.973Z,6.2
2018-03-26T01:25:59.916Z,6.2
2018-03-26T01:27:07.120Z,6.2
2018-03-26T01:28:14.058Z,6.2
2018-03-26T01:29:20.984Z,6.2
2018-03-26T01:30:28.200Z,6.2
2018-03-26T01:31:35.134Z,6.2
2018-03-26T01:32:42.337Z,6.1
2018-03-26T01:33:49.000Z,6.1
2018-03-26T01:34:55.935Z,6.1
2018-03-26T01:36:02.861Z,6.1
2018-03-26T01:37:10.062Z,6.1
2018-03-26T01:38:17.000Z,6.1
2018-03-26T01:39:23.924Z,6
2018-03-26T01:40:31.167Z,6.1
2018-03-26T01:41:38.101Z,6
2018-03-26T01:42:45.304Z,6
2018-03-26T01:43:52.514Z,6
2018-03-26T01:44:59.735Z,6
2018-03-26T01:46:06.936Z,6.1
2018-03-26T01:47:13.599Z,6
2018-03-26T01:48:20.802Z,6
2018-03-26T01:49:28.020Z,6
2018-03-26T01:50:34.951Z,5.9
2018-03-26T01:51:41.872Z,5.9
2018-03-26T01:52:49.076Z,5.9
2018-03-26T01:53:56.009Z,5.9
2018-03-26T01:55:03.208Z,5.8
2018-03-26T01:56:09.862Z,5.8
2018-03-26T01:57:16.788Z,5.8
2018-03-26T01:58:23.997Z,5.8
2018-03-26T01:59:31.250Z,5.7
2018-03-26T02:00:38.197Z,5.7
2018-03-26T02:01:45.101Z,5.7
2018-03-26T02:02:52.307Z,5.7
2018-03-26T02:03:59.249Z,5.6
2018-03-26T02:05:06.457Z,5.6
2018-03-26T02:06:13.128Z,5.6
2018-03-26T02:07:21.032Z,5.6
2018-03-26T02:08:28.255Z,5.6
2018-03-26T02:09:35.458Z,5.6
2018-03-26T02:10:42.385Z,5.6
2018-03-26T02:11:48.771Z,5.6
2018-03-26T02:12:55.978Z,5.6
2018-03-26T02:14:02.677Z,5.6
2018-03-26T02:15:09.599Z,5.5
2018-03-26T02:16:16.534Z,5.5
2018-03-26T02:17:23.774Z,5.5
2018-03-26T02:18:30.985Z,5.5
2018-03-26T02:19:38.188Z,5.5
2018-03-26T02:20:45.398Z,5.4
2018-03-26T02:21:52.335Z,5.4
2018-03-26T02:22:59.549Z,5.4
2018-03-26T02:24:06.748Z,5.3
2018-03-26T02:25:13.951Z,5.3
2018-03-26T02:26:21.155Z,5.3
2018-03-26T02:27:28.088Z,5.2
2018-03-26T02:28:35.292Z,5.2
2018-03-26T02:29:42.530Z,5.2
2018-03-26T02:30:49.180Z,5.3
2018-03-26T02:31:56.401Z,5.3
2018-03-26T02:33:03.340Z,5.2
2018-03-26T02:34:10.553Z,5.3
2018-03-26T02:35:17.495Z,5.3
2018-03-26T02:36:24.436Z,5.2
2018-03-26T02:37:31.364Z,5.3
2018-03-26T02:38:38.297Z,5.3
2018-03-26T02:39:45.499Z,5.3
2018-03-26T02:40:52.430Z,5.4
2018-03-26T02:41:59.367Z,5.3
2018-03-26T02:43:06.713Z,5.3
2018-03-26T02:44:13.633Z,5.3
2018-03-26T02:45:20.853Z,5.4
2018-03-26T02:46:27.766Z,5.3
2018-03-26T02:47:35.832Z,5.3
2018-03-26T02:48:43.036Z,5.3
2018-03-26T02:49:49.972Z,5.3
2018-03-26T02:50:57.178Z,5.3
2018-03-26T02:52:04.112Z,5.4
2018-03-26T02:53:11.334Z,5.4
2018-03-26T02:54:18.540Z,5.4
2018-03-26T02:55:25.747Z,5.5
2018-03-26T02:56:32.674Z,5.5
2018-03-26T02:57:39.880Z,5.6
2018-03-26T02:58:46.810Z,5.6
2018-03-26T02:59:53.747Z,5.6
2018-03-26T03:01:00.690Z,5.6
2018-03-26T03:02:07.906Z,5.7
2018-03-26T03:03:14.835Z,5.7
2018-03-26T03:04:21.773Z,5.6
2018-03-26T03:05:28.703Z,5.6
2018-03-26T03:06:35.903Z,5.6
2018-03-26T03:07:43.123Z,5.6
2018-03-26T03:08:50.341Z,5.7
2018-03-26T03:09:57.571Z,5.7
2018-03-26T03:11:04.498Z,5.7
2018-03-26T03:12:11.705Z,5.7
2018-03-26T03:13:18.915Z,5.7
2018-03-26T03:14:25.874Z,5.8
2018-03-26T03:15:33.080Z,5.8
2018-03-26T03:16:40.276Z,5.8
2018-03-26T03:17:47.483Z,5.7
2018-03-26T03:18:54.390Z,5.7
2018-03-26T03:20:01.602Z,5.8
2018-03-26T03:21:08.806Z,5.8
2018-03-26T03:22:16.020Z,5.8
2018-03-26T03:23:23.231Z,5.8
2018-03-26T03:24:30.439Z,5.8
2018-03-26T03:25:37.649Z,5.8
2018-03-26T03:26:44.851Z,5.8
2018-03-26T03:27:52.062Z,5.8
2018-03-26T03:28:59.297Z,5.7
2018-03-26T03:30:06.223Z,5.7
2018-03-26T03:31:12.901Z,5.7
2018-03-26T03:32:20.101Z,5.7
2018-03-26T03:33:27.308Z,5.7
2018-03-26T03:34:34.516Z,5.7
2018-03-26T03:35:41.719Z,5.7
2018-03-26T03:36:48.651Z,5.7
2018-03-26T03:37:55.873Z,5.7
2018-03-26T03:39:02.791Z,5.7
2018-03-26T03:40:09.990Z,5.7
2018-03-26T03:41:16.645Z,5.7
2018-03-26T03:42:23.578Z,5.7
2018-03-26T03:43:30.515Z,5.7
2018-03-26T03:44:37.716Z,5.7
2018-03-26T03:45:44.639Z,5.7
2018-03-26T03:46:51.025Z,5.7
2018-03-26T03:47:57.950Z,5.7
2018-03-26T03:49:04.336Z,5.6
2018-03-26T03:50:11.549Z,5.6
2018-03-26T03:51:18.495Z,5.6
2018-03-26T03:52:25.168Z,5.6
2018-03-26T03:53:32.376Z,5.6
2018-03-26T03:54:39.327Z,5.6
2018-03-26T03:55:45.986Z,5.6
2018-03-26T03:56:53.200Z,5.6
2018-03-26T03:58:00.403Z,5.6
2018-03-26T03:59:07.604Z,5.6
2018-03-26T04:00:14.811Z,5.6
2018-03-26T04:01:21.461Z,5.6
2018-03-26T04:02:28.383Z,5.6
2018-03-26T04:03:35.590Z,5.5
2018-03-26T04:04:42.810Z,5.6
2018-03-26T04:05:50.003Z,5.6
2018-03-26T04:06:56.931Z,5.6
2018-03-26T04:08:03.862Z,5.6
2018-03-26T04:09:11.072Z,5.6
2018-03-26T04:10:18.279Z,5.6
2018-03-26T04:11:25.203Z,5.6
2018-03-26T04:12:32.121Z,5.5
2018-03-26T04:13:39.049Z,5.5
2018-03-26T04:14:45.716Z,5.5
2018-03-26T04:15:52.669Z,5.5
2018-03-26T04:16:59.613Z,5.4
2018-03-26T04:18:06.826Z,5.5
2018-03-26T04:19:13.753Z,5.5
2018-03-26T04:20:20.407Z,5.5
2018-03-26T04:21:27.615Z,5.5
2018-03-26T04:22:34.824Z,5.5
2018-03-26T04:23:41.744Z,5.5
2018-03-26T04:24:48.955Z,5.5
2018-03-26T04:25:55.881Z,5.5
2018-03-26T04:27:02.818Z,5.5
2018-03-26T04:28:09.748Z,5.5
2018-03-26T04:29:16.962Z,5.5
2018-03-26T04:30:23.901Z,5.5
2018-03-26T04:31:30.825Z,5.5
2018-03-26T04:32:37.477Z,5.4
2018-03-26T04:33:44.405Z,5.4
2018-03-26T04:34:51.621Z,5.4
2018-03-26T04:35:58.276Z,5.4
2018-03-26T04:37:05.479Z,5.4
2018-03-26T04:38:12.702Z,5.4
2018-03-26T04:39:19.359Z,5.4
2018-03-26T04:40:26.564Z,5.4
2018-03-26T04:41:33.193Z,5.4
2018-03-26T04:42:40.123Z,5.4
2018-03-26T04:43:47.056Z,5.4
2018-03-26T04:44:53.715Z,5.4
2018-03-26T04:46:00.694Z,5.4
2018-03-26T04:47:07.623Z,5.4
2018-03-26T04:48:14.833Z,5.3
2018-03-26T04:49:22.037Z,5.3
2018-03-26T04:50:29.244Z,5.3
2018-03-26T04:51:36.178Z,5.3
2018-03-26T04:52:43.390Z,5.3
2018-03-26T04:53:50.042Z,5.3
2018-03-26T04:54:57.243Z,5.3
2018-03-26T04:56:04.172Z,5.4
2018-03-26T04:57:11.376Z,5.4
2018-03-26T04:58:18.588Z,5.4
2018-03-26T04:59:25.792Z,5.4
2018-03-26T05:00:33.018Z,5.4
2018-03-26T05:01:40.222Z,5.3
2018-03-26T05:02:47.432Z,5.4
2018-03-26T05:03:54.633Z,5.3
2018-03-26T05:05:01.853Z,5.4
2018-03-26T05:06:09.065Z,5.4
2018-03-26T05:07:16.272Z,5.4
2018-03-26T05:08:23.214Z,5.3
2018-03-26T05:09:30.136Z,5.3
2018-03-26T05:10:36.804Z,5.3
2018-03-26T05:11:43.452Z,5.3
2018-03-26T05:12:50.382Z,5.3
2018-03-26T05:13:57.310Z,5.3
2018-03-26T05:15:04.514Z,5.3
2018-03-26T05:16:11.439Z,5.3
2018-03-26T05:17:18.365Z,5.3
2018-03-26T05:18:25.571Z,5.3
2018-03-26T05:19:32.778Z,5.3
2018-03-26T05:20:39.984Z,5.3
2018-03-26T05:21:47.186Z,5.3
2018-03-26T05:22:54.392Z,5.4
2018-03-26T05:24:01.324Z,5.4
2018-03-26T05:25:08.248Z,5.4
2018-03-26T05:26:15.180Z,5.4
2018-03-26T05:27:22.135Z,5.4
2018-03-26T05:28:29.354Z,5.3
2018-03-26T05:29:36.275Z,5.4
2018-03-26T05:30:42.924Z,5.4
2018-03-26T05:31:50.140Z,5.4
2018-03-26T05:32:57.350Z,5.4
2018-03-26T05:34:03.729Z,5.4
2018-03-26T05:35:10.930Z,5.4
2018-03-26T05:36:17.857Z,5.4
2018-03-26T05:37:25.066Z,5.4
2018-03-26T05:38:32.014Z,5.4
2018-03-26T05:39:38.940Z,5.4
2018-03-26T05:40:45.892Z,5.4
2018-03-26T05:41:52.819Z,5.5
2018-03-26T05:43:00.025Z,5.4
2018-03-26T05:44:06.944Z,5.4
2018-03-26T05:45:14.151Z,5.4
2018-03-26T05:46:21.360Z,5.4
2018-03-26T05:47:28.567Z,5.4
2018-03-26T05:48:34.935Z,5.4
2018-03-26T05:49:42.153Z,5.4
2018-03-26T05:50:48.804Z,5.4
2018-03-26T05:51:55.731Z,5.4
2018-03-26T05:53:02.928Z,5.4
2018-03-26T05:54:10.171Z,5.4
2018-03-26T05:55:17.106Z,5.4
2018-03-26T05:56:24.718Z,5.4
2018-03-26T05:57:31.642Z,5.4
2018-03-26T05:58:38.846Z,5.4
2018-03-26T05:59:46.067Z,5.5
2018-03-26T06:00:52.992Z,5.4
2018-03-26T06:02:00.240Z,5.5
2018-03-26T06:03:07.179Z,5.4
2018-03-26T06:04:14.383Z,5.4
2018-03-26T06:05:21.316Z,5.4
2018-03-26T06:06:28.279Z,5.4
2018-03-26T06:07:35.488Z,5.4
2018-03-26T06:08:42.410Z,5.4
2018-03-26T06:09:49.341Z,5.5
2018-03-26T06:10:56.547Z,5.5
2018-03-26T06:12:03.768Z,5.5
2018-03-26T06:13:10.977Z,5.5
2018-03-26T06:14:18.178Z,5.5
2018-03-26T06:15:24.825Z,5.5
2018-03-26T06:16:32.031Z,5.5
2018-03-26T06:17:39.247Z,5.5
2018-03-26T06:18:46.180Z,5.5
2018-03-26T06:19:53.120Z,5.5
2018-03-26T06:21:00.044Z,5.5
2018-03-26T06:22:07.260Z,5.5
2018-03-26T06:23:14.480Z,5.5
2018-03-26T06:24:21.686Z,5.5
2018-03-26T06:25:28.611Z,5.6
2018-03-26T06:26:35.552Z,5.6
2018-03-26T06:27:42.208Z,5.6
2018-03-26T06:28:48.861Z,5.6
2018-03-26T06:29:55.234Z,5.6
2018-03-26T06:31:02.436Z,5.6
2018-03-26T06:32:09.643Z,5.6
2018-03-26T06:33:16.842Z,5.6
2018-03-26T06:34:23.777Z,5.6
2018-03-26T06:35:31.583Z,5.6
2018-03-26T06:36:38.246Z,5.6
2018-03-26T06:37:44.894Z,5.6
2018-03-26T06:38:52.105Z,5.6
2018-03-26T06:39:59.033Z,5.7
2018-03-26T06:41:05.977Z,5.6
2018-03-26T06:42:13.232Z,5.7
2018-03-26T06:43:20.444Z,5.7
2018-03-26T06:44:27.653Z,5.7
2018-03-26T06:45:34.863Z,5.7
2018-03-26T06:46:42.241Z,5.7
2018-03-26T06:47:49.575Z,5.7
2018-03-26T06:48:56.790Z,5.8
2018-03-26T06:50:03.997Z,5.8
2018-03-26T06:51:11.199Z,5.8
2018-03-26T06:52:18.409Z,5.8
2018-03-26T06:53:25.338Z,5.8
2018-03-26T06:54:32.268Z,5.8
2018-03-26T06:55:39.469Z,5.9
2018-03-26T06:56:46.278Z,5.9
2018-03-26T06:57:53.521Z,5.9
2018-03-26T06:59:00.726Z,5.9
2018-03-26T07:00:07.945Z,5.9
2018-03-26T07:01:15.146Z,5.9
2018-03-26T07:02:22.462Z,5.9
2018-03-26T07:03:29.717Z,5.9
2018-03-26T07:04:36.922Z,6
2018-03-26T07:05:44.711Z,6
2018-03-26T07:06:51.660Z,6.1
2018-03-26T07:07:58.863Z,6.1
2018-03-26T07:09:06.070Z,6.1
2018-03-26T07:10:13.284Z,6.1
2018-03-26T07:11:20.257Z,6.2
2018-03-26T07:12:27.661Z,6.2
2018-03-26T07:13:34.393Z,6.2
2018-03-26T07:14:40.989Z,6.2
2018-03-26T07:15:48.293Z,6.2
2018-03-26T07:16:55.224Z,6.2
2018-03-26T07:18:02.154Z,6.2
2018-03-26T07:19:09.100Z,6.3
2018-03-26T07:20:16.317Z,6.3
2018-03-26T07:21:23.232Z,6.3
2018-03-26T07:22:30.160Z,6.4
2018-03-26T07:23:37.087Z,6.4
2018-03-26T07:24:44.023Z,6.4
2018-03-26T07:25:51.232Z,6.4
2018-03-26T07:26:58.159Z,6.5
2018-03-26T07:28:04.813Z,6.5
2018-03-26T07:29:12.017Z,6.5
2018-03-26T07:30:18.949Z,6.6
2018-03-26T07:31:25.365Z,6.6
2018-03-26T07:32:32.573Z,6.7
2018-03-26T07:33:39.221Z,6.7
2018-03-26T07:34:46.424Z,6.7
2018-03-26T07:35:53.634Z,6.7
2018-03-26T07:37:00.570Z,6.7
2018-03-26T07:38:07.778Z,6.8
2018-03-26T07:39:14.709Z,6.7
2018-03-26T07:40:21.643Z,6.8
2018-03-26T07:41:28.856Z,6.8
2018-03-26T07:42:36.059Z,6.8
2018-03-26T07:43:42.712Z,6.9
2018-03-26T07:44:49.925Z,6.9
2018-03-26T07:45:57.467Z,7
2018-03-26T07:47:04.399Z,7.1
2018-03-26T07:48:11.047Z,7.2
2018-03-26T07:49:17.976Z,7.1
2018-03-26T07:50:24.913Z,7
2018-03-26T07:51:31.838Z,7
2018-03-26T07:52:38.760Z,7
2018-03-26T07:53:45.707Z,7
2018-03-26T07:54:52.650Z,7.1
2018-03-26T07:55:59.304Z,7.2
2018-03-26T07:57:05.969Z,7.3
2018-03-26T07:58:12.928Z,7.4
2018-03-26T07:59:19.853Z,7.4
2018-03-26T08:00:26.784Z,7.5
2018-03-26T08:01:33.986Z,7.5
2018-03-26T08:02:40.365Z,7.5
2018-03-26T08:03:47.573Z,7.6
2018-03-26T08:04:54.239Z,7.7
2018-03-26T08:06:00.898Z,7.8
2018-03-26T08:07:08.127Z,7.8
2018-03-26T08:08:15.339Z,7.9
2018-03-26T08:09:22.274Z,8.1
2018-03-26T08:10:29.197Z,8
2018-03-26T08:11:36.429Z,8
2018-03-26T08:12:43.370Z,8.1
2018-03-26T08:13:50.574Z,8.3
2018-03-26T08:14:57.535Z,8.4
2018-03-26T08:16:04.729Z,8.1
2018-03-26T08:17:11.517Z,8
2018-03-26T08:18:19.160Z,7.9
2018-03-26T08:19:26.115Z,7.8
2018-03-26T08:20:33.310Z,7.9
2018-03-26T08:21:40.232Z,8
2018-03-26T08:22:47.446Z,8.1
2018-03-26T08:23:54.658Z,8.1
2018-03-26T08:25:01.863Z,8
2018-03-26T08:26:09.070Z,8.1
2018-03-26T08:27:16.483Z,8.1
2018-03-26T08:28:23.438Z,8.2
2018-03-26T08:29:30.642Z,8.3
2018-03-26T08:30:37.292Z,8.1
2018-03-26T08:31:44.497Z,8.1
2018-03-26T08:32:51.702Z,8
2018-03-26T08:33:58.630Z,8.1
2018-03-26T08:35:05.576Z,8.3
2018-03-26T08:36:12.793Z,8.2
2018-03-26T08:37:19.731Z,8.3
2018-03-26T08:38:26.946Z,8.4
2018-03-26T08:39:33.598Z,8.6
2018-03-26T08:40:40.559Z,8.8
2018-03-26T08:41:47.766Z,8.8
2018-03-26T08:42:54.700Z,8.9
2018-03-26T08:44:01.351Z,8.7
2018-03-26T08:45:08.571Z,8.5
2018-03-26T08:46:15.226Z,8.4
2018-03-26T08:47:22.151Z,8.5
2018-03-26T08:48:29.126Z,8.6
2018-03-26T08:49:36.065Z,8.6
2018-03-26T08:50:43.273Z,8.6
2018-03-26T08:51:50.220Z,8.6
2018-03-26T08:52:56.885Z,8.6
2018-03-26T08:54:03.845Z,8.6
2018-03-26T08:55:11.056Z,8.7
2018-03-26T08:56:18.402Z,8.5
2018-03-26T08:57:25.323Z,8.3
2018-03-26T08:58:32.248Z,8.5
2018-03-26T08:59:39.468Z,8.5
2018-03-26T22:00:05.737Z,3.6
2018-03-26T22:01:12.679Z,3.6
2018-03-26T22:02:19.884Z,3.6
2018-03-26T22:03:27.086Z,3.6
2018-03-26T22:04:34.126Z,3.6
2018-03-26T22:05:41.565Z,3.6
2018-03-26T22:06:48.503Z,3.6
2018-03-26T22:07:55.701Z,3.6
2018-03-26T22:09:02.903Z,3.6
2018-03-26T22:10:09.833Z,3.6
2018-03-26T22:11:17.046Z,3.6
2018-03-26T22:12:23.973Z,3.6
2018-03-26T22:13:30.634Z,3.6
2018-03-26T22:14:37.608Z,3.6
2018-03-26T22:15:44.811Z,3.6
2018-03-26T22:16:51.738Z,3.6
2018-03-26T22:17:58.678Z,3.6
2018-03-26T22:19:05.871Z,3.6
2018-03-26T22:20:13.073Z,3.6
2018-03-26T22:21:20.492Z,3.7
2018-03-26T22:22:27.679Z,3.7
2018-03-26T22:23:34.887Z,3.7
2018-03-26T22:24:42.090Z,3.6
2018-03-26T22:25:49.284Z,3.7
2018-03-26T22:26:56.504Z,3.7
2018-03-26T22:28:03.710Z,3.7
2018-03-26T22:29:11.645Z,3.7
2018-03-26T22:30:18.024Z,3.7
2018-03-26T22:31:24.949Z,3.7
2018-03-26T22:32:31.881Z,3.7
2018-03-26T22:33:39.085Z,3.7
2018-03-26T22:34:46.039Z,3.7
2018-03-26T22:35:53.772Z,3.7
2018-03-26T22:37:01.036Z,3.8
2018-03-26T22:38:08.298Z,3.7
2018-03-26T22:39:15.296Z,3.7
2018-03-26T22:40:22.513Z,3.8
2018-03-26T22:41:29.558Z,3.7
2018-03-26T22:42:36.271Z,3.7
2018-03-26T22:43:43.523Z,3.7
2018-03-26T22:44:50.804Z,3.8
2018-03-26T22:45:58.233Z,3.7
2018-03-26T22:47:05.496Z,3.8
2018-03-26T22:48:12.757Z,3.7
2018-03-26T22:49:20.018Z,3.8
2018-03-26T22:50:27.285Z,3.8
2018-03-26T22:51:34.566Z,3.8
2018-03-26T22:52:41.826Z,3.8
2018-03-26T22:53:49.097Z,3.8
2018-03-26T22:54:56.349Z,3.8
2018-03-26T22:56:03.335Z,3.8
2018-03-26T22:57:10.269Z,3.8
2018-03-26T22:58:17.248Z,3.8
2018-03-26T22:59:24.227Z,3.8
2018-03-26T23:00:31.215Z,3.8
2018-03-26T23:01:38.203Z,3.8
2018-03-26T23:02:45.468Z,3.9
2018-03-26T23:03:52.683Z,3.9
2018-03-26T23:04:59.941Z,3.8
2018-03-26T23:06:07.199Z,3.8
2018-03-26T23:07:14.229Z,3.8
2018-03-26T23:08:21.489Z,3.8
2018-03-26T23:09:28.475Z,3.8
2018-03-26T23:10:35.452Z,3.8
2018-03-26T23:11:42.707Z,3.8
2018-03-26T23:12:49.698Z,3.8
2018-03-26T23:13:56.670Z,3.8
2018-03-26T23:15:03.656Z,3.8
2018-03-26T23:16:10.353Z,3.8
2018-03-26T23:17:17.449Z,3.8
2018-03-26T23:18:24.494Z,3.8
2018-03-26T23:19:31.791Z,3.8
2018-03-26T23:20:38.775Z,3.8
2018-03-26T23:21:45.750Z,3.8
2018-03-26T23:22:52.719Z,3.8
2018-03-26T23:23:59.712Z,3.8
2018-03-26T23:25:06.413Z,3.8
2018-03-26T23:26:13.656Z,3.9
2018-03-26T23:27:20.908Z,3.8
2018-03-26T23:28:27.615Z,3.8
2018-03-26T23:29:34.606Z,3.8
2018-03-26T23:30:42.060Z,3.8
2018-03-26T23:31:49.355Z,3.8
2018-03-26T23:32:56.334Z,3.8
2018-03-26T23:34:03.583Z,3.8
2018-03-26T23:35:10.835Z,3.8
2018-03-26T23:36:17.807Z,3.9
2018-03-26T23:37:24.914Z,3.9
2018-03-26T23:38:31.895Z,3.9
2018-03-26T23:39:39.136Z,3.9
2018-03-26T23:40:45.834Z,3.9
2018-03-26T23:41:53.669Z,3.9
2018-03-26T23:43:00.648Z,3.9
2018-03-26T23:44:07.607Z,3.9
2018-03-26T23:45:14.013Z,3.9
2018-03-26T23:46:21.255Z,3.9
2018-03-26T23:47:28.217Z,3.9
2018-03-26T23:48:35.469Z,3.9
2018-03-26T23:49:42.717Z,3.8
2018-03-26T23:50:49.669Z,3.9
2018-03-26T23:51:56.918Z,3.9
2018-03-26T23:53:03.897Z,3.9
2018-03-26T23:54:11.128Z,3.9
2018-03-26T23:55:18.378Z,3.9
2018-03-26T23:56:25.046Z,3.9
2018-03-26T23:57:32.011Z,3.9
2018-03-26T23:58:39.252Z,3.9
2018-03-26T23:59:45.930Z,3.8
